^^
Meteo Knjazevac Station Historical Data
Daily Summary for January 22, 2021 Units:  English    Metric   Both
Daily Weekly Monthly Yearly Custom
  High: Low: Average:
Temperature: 54.3 °F 38.3 °F 47.3 °F
Dew Point: 44 °F 35.1 °F 40.4 °F
Humidity: 91% 67% 77%
Wind Speed: 8mph 0mph 3.1mph
Wind Gust: 21mph - -
Wind- - South
Pressure: 30.18 in 29.97 in -
Precipitation: 0.00 in    
Historical Graphs
 
 
Tabular Data for January 22, 2021
Time Temperature Dew Point Pressure Wind Wind Speed Wind Gust Humidity Rainfall Rate (Hourly) solar Conditions
00:00 38.3 °F 35.1 °F 30.18 in South 3 mph 7 mph 88% 0.00 in 0 W/m2
00:10 38.3 °F 35.1 °F 30.18 in South 2 mph 6 mph 88% 0.00 in 0 W/m2
00:20 38.5 °F 35.2 °F 30.18 in SSW 3 mph 5 mph 88% 0.00 in 0 W/m2
00:30 38.7 °F 35.4 °F 30.18 in WSW 3 mph 5 mph 88% 0.00 in 0 W/m2
00:40 39.1 °F 35.8 °F 30.18 in WSW 5 mph 7 mph 88% 0.00 in 0 W/m2
00:50 39.7 °F 36.5 °F 30.17 in WSW 1 mph 7 mph 88% 0.00 in 0 W/m2
01:00 40.1 °F 36.8 °F 30.17 in West 2 mph 5 mph 88% 0.00 in 0 W/m2
01:10 40.3 °F 36.4 °F 30.17 in West 2 mph 4 mph 86% 0.00 in 0 W/m2
01:20 40.5 °F 36.6 °F 30.17 in Calm   4 mph 86% 0.00 in 0 W/m2
01:30 40 °F 36.2 °F 30.17 in Calm   3 mph 86% 0.00 in 0 W/m2
01:40 39.4 °F 35.5 °F 30.17 in SW 2 mph 5 mph 86% 0.00 in 0 W/m2
01:50 39.8 °F 36.6 °F 30.16 in South 3 mph 7 mph 88% 0.00 in 0 W/m2
02:00 40.3 °F 36.4 °F 30.16 in South 2 mph 7 mph 86% 0.00 in 0 W/m2
02:10 40.7 °F 36.9 °F 30.16 in SSW 3 mph 10 mph 86% 0.00 in 0 W/m2
02:20 41 °F 36.8 °F 30.16 in WSW 5 mph 10 mph 85% 0.00 in 0 W/m2
02:30 42 °F 37.8 °F 30.16 in WSW 2 mph 8 mph 85% 0.00 in 0 W/m2
02:40 42.6 °F 38.1 °F 30.15 in SW 2 mph 8 mph 84% 0.00 in 0 W/m2
02:50 42.6 °F 38.1 °F 30.15 in SW 3 mph 6 mph 84% 0.00 in 0 W/m2
03:00 42.8 °F 38 °F 30.15 in SSW 2 mph 6 mph 83% 0.00 in 0 W/m2
03:10 42.8 °F 38 °F 30.15 in SSW 3 mph 9 mph 83% 0.00 in 0 W/m2
03:20 42.8 °F 38 °F 30.15 in WSW 2 mph 7 mph 83% 0.00 in 0 W/m2
03:30 42.6 °F 37.8 °F 30.14 in SW 2 mph 8 mph 83% 0.00 in 0 W/m2
03:40 42.7 °F 37.9 °F 30.15 in SW 3 mph 6 mph 83% 0.00 in 0 W/m2
03:50 42.8 °F 38 °F 30.15 in SSW 5 mph 8 mph 83% 0.00 in 0 W/m2
04:00 43.5 °F 38.7 °F 30.14 in SSE 7 mph 18 mph 83% 0.00 in 0 W/m2
04:10 43.9 °F 38.7 °F 30.13 in ESE 7 mph 16 mph 82% 0.00 in 0 W/m2
04:20 43.7 °F 38.9 °F 30.14 in East 5 mph 12 mph 83% 0.00 in 0 W/m2
04:30 44.1 °F 39.2 °F 30.13 in ESE 7 mph 15 mph 83% 0.00 in 0 W/m2
04:40 44.1 °F 39.2 °F 30.13 in ESE 3 mph 14 mph 83% 0.00 in 0 W/m2
04:50 44.1 °F 39.2 °F 30.13 in SE 6 mph 14 mph 83% 0.00 in 0 W/m2
05:00 43.7 °F 38.9 °F 30.14 in WNW 2 mph 5 mph 83% 0.00 in 0 W/m2
05:10 43.6 °F 39.1 °F 30.13 in SE 3 mph 8 mph 84% 0.00 in 0 W/m2
05:20 43.3 °F 38.8 °F 30.14 in SW 3 mph 5 mph 84% 0.00 in 0 W/m2
05:30 43.2 °F 38.7 °F 30.14 in SW 2 mph 6 mph 84% 0.00 in 0 W/m2
05:40 43.2 °F 39 °F 30.14 in SSE 5 mph 8 mph 85% 0.00 in 0 W/m2
05:50 43.5 °F 39 °F 30.14 in SE 3 mph 12 mph 84% 0.00 in 0 W/m2
06:00 43.5 °F 39 °F 30.14 in SE 3 mph 8 mph 84% 0.00 in 0 W/m2
06:10 43.2 °F 39 °F 30.14 in SSE 2 mph 9 mph 85% 0.00 in 0 W/m2
06:20 42.9 °F 39 °F 30.14 in SSE 3 mph 5 mph 86% 0.00 in 0 W/m2
06:30 42.3 °F 38.4 °F 30.14 in WSW 3 mph 7 mph 86% 0.00 in 0 W/m2
06:40 42.6 °F 38.4 °F 30.13 in SW 1 mph 5 mph 85% 0.00 in 0 W/m2
06:50 42.4 °F 39.1 °F 30.13 in SSW 2 mph 11 mph 88% 0.00 in 0 W/m2
07:00 42.4 °F 38.5 °F 30.13 in South 2 mph 11 mph 86% 0.00 in 2 W/m2
07:10 41.5 °F 38.2 °F 30.12 in WSW 2 mph 7 mph 88% 0.00 in 3 W/m2
07:20 41.2 °F 38.2 °F 30.12 in West 2 mph 7 mph 89% 0.00 in 12 W/m2
07:30 41.1 °F 38.1 °F 30.12 in SSW 2 mph 6 mph 89% 0.00 in 24 W/m2
07:40 40.5 °F 38 °F 30.11 in SW 2 mph 5 mph 91% 0.00 in 43 W/m2
07:50 40.9 °F 38.2 °F 30.11 in SSW 1 mph 8 mph 90% 0.00 in 53 W/m2
08:00 40.8 °F 38.1 °F 30.10 in SW 2 mph 6 mph 90% 0.00 in 59 W/m2
08:10 41.3 °F 38.3 °F 30.10 in South 3 mph 6 mph 89% 0.00 in 70 W/m2
08:20 41.9 °F 38.6 °F 30.10 in South 2 mph 7 mph 88% 0.00 in 81 W/m2
08:30 42.6 °F 38.7 °F 30.10 in SSW 1 mph 6 mph 86% 0.00 in 98 W/m2
08:40 43.1 °F 38.9 °F 30.10 in SW 3 mph 7 mph 85% 0.00 in 109 W/m2
08:50 44 °F 39.5 °F 30.10 in SW 2 mph 5 mph 84% 0.00 in 109 W/m2
09:00 44.2 °F 40 °F 30.10 in WSW 2 mph 5 mph 85% 0.00 in 136 W/m2
09:10 44.8 °F 40.2 °F 30.10 in Calm   5 mph 84% 0.00 in 167 W/m2
09:20 45.3 °F 40.8 °F 30.10 in West 2 mph 4 mph 84% 0.00 in 176 W/m2
09:30 46 °F 40.9 °F 30.09 in SW 1 mph 5 mph 82% 0.00 in 171 W/m2
09:40 46.5 °F 41 °F 30.09 in WNW 1 mph 2 mph 81% 0.00 in 206 W/m2
09:50 47.1 °F 41.3 °F 30.09 in Calm   3 mph 80% 0.00 in 278 W/m2
10:00 48.3 °F 42.1 °F 30.09 in Calm   5 mph 79% 0.00 in 319 W/m2
10:10 49.6 °F 42.6 °F 30.09 in SW 2 mph 3 mph 77% 0.00 in 324 W/m2
10:20 50.7 °F 42.7 °F 30.09 in South 3 mph 6 mph 74% 0.00 in 344 W/m2
10:30 51.8 °F 43.4 °F 30.08 in South 5 mph 10 mph 73% 0.00 in 355 W/m2
10:40 52.7 °F 43.9 °F 30.08 in South 5 mph 12 mph 72% 0.00 in 364 W/m2
10:50 53.4 °F 43.5 °F 30.08 in SSW 7 mph 13 mph 69% 0.00 in 372 W/m2
11:00 53.6 °F 43.7 °F 30.07 in SSW 5 mph 12 mph 69% 0.00 in 379 W/m2
11:10 54.1 °F 43.7 °F 30.06 in SSE 6 mph 10 mph 68% 0.00 in 384 W/m2
11:20 54.3 °F 44 °F 30.06 in SSE 3 mph 13 mph 68% 0.00 in 309 W/m2
11:30 54.3 °F 44 °F 30.06 in SE 3 mph 10 mph 68% 0.00 in 244 W/m2
11:40 54.1 °F 43.8 °F 30.05 in SE 6 mph 12 mph 68% 0.00 in 262 W/m2
11:50 54 °F 43.6 °F 30.05 in SSE 5 mph 13 mph 68% 0.00 in 222 W/m2
12:00 53.8 °F 43.1 °F 30.05 in SSE 7 mph 13 mph 67% 0.00 in 188 W/m2
12:10 53.4 °F 43.1 °F 30.04 in SE 7 mph 12 mph 68% 0.00 in 184 W/m2
12:20 53.2 °F 42.9 °F 30.04 in SSE 5 mph 12 mph 68% 0.00 in 158 W/m2
12:30 53.2 °F 43.3 °F 30.04 in SSE 1 mph 7 mph 69% 0.00 in 161 W/m2
12:40 53.1 °F 43.2 °F 30.03 in South 2 mph 6 mph 69% 0.00 in 182 W/m2
12:50 53.2 °F 43.3 °F 30.03 in SSE 2 mph 8 mph 69% 0.00 in 199 W/m2
13:00 53.2 °F 43.3 °F 30.03 in SSE 2 mph 7 mph 69% 0.00 in 214 W/m2
13:10 53.5 °F 43.6 °F 30.03 in SSE 3 mph 8 mph 69% 0.00 in 199 W/m2
13:20 53.6 °F 43.3 °F 30.02 in SSE 2 mph 7 mph 68% 0.00 in 178 W/m2
13:30 53.4 °F 43.1 °F 30.02 in SSW 5 mph 10 mph 68% 0.00 in 149 W/m2
13:40 53.4 °F 43.1 °F 30.02 in SSE 3 mph 9 mph 68% 0.00 in 117 W/m2
13:50 53.2 °F 43.3 °F 30.02 in South 2 mph 6 mph 69% 0.00 in 107 W/m2
14:00 53.1 °F 43.2 °F 30.01 in South 3 mph 11 mph 69% 0.00 in 100 W/m2
14:10 52.9 °F 42.6 °F 30.01 in SSE 5 mph 10 mph 68% 0.00 in 71 W/m2
14:20 52.9 °F 42.6 °F 30.01 in SSE 5 mph 10 mph 68% 0.00 in 52 W/m2
14:30 52.6 °F 42.7 °F 30.01 in South 3 mph 8 mph 69% 0.00 in 37 W/m2
14:40 52.3 °F 42.5 °F 30.01 in SSE 5 mph 9 mph 69% 0.00 in 30 W/m2
14:50 52.2 °F 42.3 °F 30.01 in SSE 6 mph 14 mph 69% 0.00 in 32 W/m2
15:00 52.3 °F 42.1 °F 30.01 in SE 6 mph 18 mph 68% 0.00 in 27 W/m2
15:10 52.3 °F 42.1 °F 30.01 in SSE 6 mph 14 mph 68% 0.00 in 25 W/m2
15:20 52.3 °F 42.4 °F 30.00 in SSE 5 mph 12 mph 69% 0.00 in 19 W/m2
15:30 52.2 °F 42.3 °F 30.01 in SE 5 mph 13 mph 69% 0.00 in 16 W/m2
15:40 52 °F 42.1 °F 30.01 in SSE 2 mph 13 mph 69% 0.00 in 12 W/m2
15:50 51.8 °F 42.3 °F 30.01 in SSE 1 mph 6 mph 70% 0.00 in 10 W/m2
16:00 51.6 °F 42.2 °F 30.01 in South 2 mph 7 mph 70% 0.00 in 7 W/m2
16:10 51.3 °F 41.9 °F 30.01 in South 2 mph 6 mph 70% 0.00 in 3 W/m2
16:20 50.9 °F 42.2 °F 30.00 in South 2 mph 7 mph 72% 0.00 in 3 W/m2
16:30 50.7 °F 42 °F 30.01 in SSW 3 mph 6 mph 72% 0.00 in 0 W/m2
16:40 50.2 °F 41.6 °F 30.01 in SSW 2 mph 6 mph 72% 0.00 in 0 W/m2
16:50 49.9 °F 41.2 °F 30.01 in SSW 2 mph 7 mph 72% 0.00 in 0 W/m2
17:00 49.5 °F 41.2 °F 30.00 in SSW 1 mph 5 mph 73% 0.00 in 0 W/m2
17:10 49.3 °F 41 °F 30.00 in SSW 2 mph 7 mph 73% 0.00 in 0 W/m2
17:20 49.1 °F 40.8 °F 30.00 in SSW 2 mph 6 mph 73% 0.00 in 0 W/m2
17:30 48.9 °F 40.6 °F 30.00 in SSW 2 mph 7 mph 73% 0.00 in 0 W/m2
17:40 49.1 °F 40.8 °F 30.01 in South 2 mph 6 mph 73% 0.00 in 0 W/m2
17:50 49.1 °F 40.8 °F 30.01 in SSE 1 mph 5 mph 73% 0.00 in 0 W/m2
18:00 49 °F 41 °F 30.00 in SW 1 mph 3 mph 74% 0.00 in 0 W/m2
18:10 48.7 °F 40.7 °F 30.01 in WNW 2 mph 5 mph 74% 0.00 in 0 W/m2
18:20 48.7 °F 41.2 °F 30.01 in WNW 1 mph 4 mph 75% 0.00 in 0 W/m2
18:30 49 °F 41.1 °F 30.00 in SSW 2 mph 5 mph 74% 0.00 in 0 W/m2
18:40 48.8 °F 40.9 °F 29.99 in SSW 2 mph 5 mph 74% 0.00 in 0 W/m2
18:50 48.4 °F 40.5 °F 29.99 in SSW 2 mph 6 mph 74% 0.00 in 0 W/m2
19:00 48.4 °F 40.5 °F 29.99 in SSW 3 mph 7 mph 74% 0.00 in 0 W/m2
19:10 48.4 °F 40.5 °F 29.99 in SW 3 mph 7 mph 74% 0.00 in 0 W/m2
19:20 48.7 °F 40.8 °F 29.99 in SSW 5 mph 8 mph 74% 0.00 in 0 W/m2
19:30 48.9 °F 41 °F 29.99 in South 2 mph 7 mph 74% 0.00 in 0 W/m2
19:40 49.2 °F 41.3 °F 29.99 in South 1 mph 8 mph 74% 0.00 in 0 W/m2
19:50 49.3 °F 41.3 °F 29.99 in ENE 1 mph 4 mph 74% 0.00 in 0 W/m2
20:00 49.1 °F 41.5 °F 29.99 in Calm   6 mph 75% 0.00 in 0 W/m2
20:10 49.1 °F 41.2 °F 29.99 in SE 2 mph 5 mph 74% 0.00 in 0 W/m2
20:20 49.3 °F 41.3 °F 29.99 in SSE 2 mph 7 mph 74% 0.00 in 0 W/m2
20:30 49.3 °F 41.3 °F 29.99 in SE 2 mph 7 mph 74% 0.00 in 0 W/m2
20:40 49.5 °F 41.5 °F 29.98 in ESE 2 mph 7 mph 74% 0.00 in 0 W/m2
20:50 49.5 °F 41.6 °F 29.98 in ESE 2 mph 7 mph 74% 0.00 in 0 W/m2
21:00 49.5 °F 41.5 °F 29.99 in SSE 2 mph 5 mph 74% 0.00 in 0 W/m2
21:10 49.5 °F 41.5 °F 29.99 in South 1 mph 4 mph 74% 0.00 in 0 W/m2
21:20 49.3 °F 41.3 °F 29.98 in SSE 3 mph 6 mph 74% 0.00 in 0 W/m2
21:30 49.3 °F 41.3 °F 29.98 in SE 5 mph 8 mph 74% 0.00 in 0 W/m2
21:40 49.5 °F 41.5 °F 29.98 in SE 1 mph 8 mph 74% 0.00 in 0 W/m2
21:50 49.5 °F 41.5 °F 29.97 in SSE 3 mph 7 mph 74% 0.00 in 0 W/m2
22:00 49.8 °F 41.5 °F 29.98 in SE 5 mph 9 mph 73% 0.00 in 0 W/m2
22:10 49.8 °F 41.5 °F 29.97 in SE 5 mph 9 mph 73% 0.00 in 0 W/m2
22:20 49.6 °F 41.3 °F 29.97 in SSE 5 mph 9 mph 73% 0.00 in 0 W/m2
22:30 49.8 °F 41.5 °F 29.98 in SSE 6 mph 13 mph 73% 0.00 in 0 W/m2
22:40 50.4 °F 41.7 °F 29.97 in SSE 6 mph 16 mph 72% 0.00 in 0 W/m2
22:50 50.4 °F 41.7 °F 29.97 in SSE 5 mph 14 mph 72% 0.00 in 0 W/m2
23:00 50 °F 41.7 °F 29.98 in South 5 mph 10 mph 73% 0.00 in 0 W/m2
23:10 50 °F 41.7 °F 29.97 in SSE 7 mph 14 mph 73% 0.00 in 0 W/m2
23:20 50.7 °F 42 °F 29.97 in SE 7 mph 17 mph 72% 0.00 in 0 W/m2
23:30 50.9 °F 41.5 °F 29.97 in SE 8 mph 16 mph 70% 0.00 in 0 W/m2
23:40 51.1 °F 41.6 °F 29.97 in SE 7 mph 20 mph 70% 0.00 in 0 W/m2
23:50 51.1 °F 41.6 °F 29.97 in SSE 8 mph 21 mph 70% 0.00 in 0 W/m2
Knjazevac, Serbia
Compliments of Weather Underground - 2 mb